createdAt,value
2022-10-30T00:00:34.980Z,86.99
2022-10-30T00:01:35.045Z,86.79
2022-10-30T00:02:35.093Z,86.79
2022-10-30T00:03:34.945Z,86.90
2022-10-30T00:04:34.933Z,87.40
2022-10-30T00:05:34.940Z,87.30
2022-10-30T00:06:34.915Z,87.10
2022-10-30T00:07:34.912Z,87.50
2022-10-30T00:08:34.897Z,86.59
2022-10-30T00:09:34.877Z,86.85
2022-10-30T00:10:34.871Z,86.90
2022-10-30T00:11:34.870Z,87.10
2022-10-30T00:12:34.857Z,87.60
2022-10-30T00:13:34.838Z,87.10
2022-10-30T00:14:34.824Z,86.99
2022-10-30T00:15:34.813Z,87.30
2022-10-30T00:16:34.803Z,86.69
2022-10-30T00:17:34.801Z,85.99
2022-10-30T00:18:34.780Z,86.59
2022-10-30T00:19:34.779Z,85.99
2022-10-30T00:20:34.759Z,86.39
2022-10-30T00:21:34.764Z,85.78
2022-10-30T00:22:34.756Z,85.99
2022-10-30T00:23:34.727Z,86.19
2022-10-30T00:24:34.723Z,85.88
2022-10-30T00:25:34.707Z,85.72
2022-10-30T00:26:34.695Z,85.93
2022-10-30T00:27:34.708Z,86.22
2022-10-30T00:28:34.681Z,86.33
2022-10-30T00:29:34.658Z,86.33
2022-10-30T00:30:34.651Z,86.33
2022-10-30T00:31:34.637Z,86.02
2022-10-30T00:32:34.638Z,86.02
2022-10-30T00:33:34.615Z,86.02
2022-10-30T00:34:34.621Z,85.93
2022-10-30T00:35:34.629Z,86.33
2022-10-30T00:36:34.586Z,86.22
2022-10-30T00:37:34.600Z,86.13
2022-10-30T00:38:34.562Z,85.93
2022-10-30T00:39:34.551Z,86.53
2022-10-30T00:40:34.548Z,87.04
2022-10-30T00:41:34.534Z,87.68
2022-10-30T00:42:34.530Z,87.28
2022-10-30T00:43:34.507Z,87.38
2022-10-30T00:44:34.497Z,87.48
2022-10-30T00:45:34.484Z,87.58
2022-10-30T00:46:34.475Z,87.18
2022-10-30T00:47:34.517Z,87.38
2022-10-30T00:48:34.453Z,88.09
2022-10-30T00:49:34.444Z,87.68
2022-10-30T00:50:34.444Z,87.38
2022-10-30T00:51:34.453Z,88.09
2022-10-30T00:52:34.426Z,88.23
2022-10-30T00:53:34.425Z,88.64
2022-10-30T00:54:34.387Z,88.53
2022-10-30T00:55:34.378Z,88.43
2022-10-30T00:56:34.365Z,88.43
2022-10-30T00:57:34.370Z,88.02
2022-10-30T00:58:34.345Z,88.33
2022-10-30T00:59:34.339Z,88.13
2022-10-30T01:00:34.327Z,88.43
2022-10-30T01:01:34.443Z,88.02
2022-10-30T01:02:34.373Z,88.02
2022-10-30T01:03:34.290Z,87.82
2022-10-30T01:04:34.285Z,87.82
2022-10-30T01:05:34.269Z,87.62
2022-10-30T01:06:34.258Z,87.62
2022-10-30T01:07:34.258Z,88.27
2022-10-30T01:08:34.414Z,88.27
2022-10-30T01:09:34.243Z,88.48
2022-10-30T01:10:34.215Z,88.78
2022-10-30T01:11:34.205Z,88.98
2022-10-30T01:12:34.205Z,89.28
2022-10-30T01:13:34.209Z,89.08
2022-10-30T01:14:34.177Z,89.12
2022-10-30T01:15:34.160Z,89.89
2022-10-30T01:16:34.153Z,89.63
2022-10-30T01:17:34.149Z,90.03
2022-10-30T01:18:34.129Z,89.73
2022-10-30T01:19:34.117Z,89.63
2022-10-30T01:20:34.111Z,89.83
2022-10-30T01:21:34.120Z,90.24
2022-10-30T01:22:34.126Z,89.98
2022-10-30T01:23:34.078Z,90.03
2022-10-30T01:24:34.062Z,90.44
2022-10-30T01:25:34.070Z,90.34
2022-10-30T01:26:34.042Z,90.44
2022-10-30T01:27:34.048Z,90.84
2022-10-30T01:28:34.021Z,90.84
2022-10-30T01:29:34.015Z,90.84
2022-10-30T01:30:33.997Z,90.64
2022-10-30T01:31:33.990Z,90.64
2022-10-30T01:32:34.323Z,90.84
2022-10-30T01:33:34.001Z,90.44
2022-10-30T01:34:33.994Z,90.54
2022-10-30T01:35:33.989Z,90.24
2022-10-30T01:36:33.933Z,90.24
2022-10-30T01:37:33.968Z,90.24
2022-10-30T01:38:33.947Z,89.94
2022-10-30T01:39:33.904Z,90.14
2022-10-30T01:40:33.889Z,90.14
2022-10-30T01:41:33.900Z,90.03
2022-10-30T01:42:33.939Z,89.83
2022-10-30T01:43:33.862Z,89.73
2022-10-30T01:44:33.846Z,90.14
2022-10-30T01:45:33.839Z,89.83
2022-10-30T01:46:33.825Z,89.73
2022-10-30T01:47:33.828Z,89.53
2022-10-30T01:48:33.803Z,89.48
2022-10-30T01:49:33.803Z,89.83
2022-10-30T01:50:33.783Z,89.39
2022-10-30T01:51:33.773Z,89.23
2022-10-30T01:52:33.782Z,89.18
2022-10-30T01:53:33.751Z,89.32
2022-10-30T01:54:33.771Z,88.92
2022-10-30T01:55:33.732Z,89.32
2022-10-30T01:56:33.715Z,89.94
2022-10-30T01:57:33.738Z,89.94
2022-10-30T01:58:33.755Z,89.94
2022-10-30T01:59:33.688Z,89.94
2022-10-30T02:00:33.675Z,89.83
2022-10-30T02:01:33.763Z,89.94
2022-10-30T02:02:33.840Z,89.53
2022-10-30T02:03:33.647Z,89.12
2022-10-30T02:04:33.630Z,89.23
2022-10-30T02:05:33.619Z,89.43
2022-10-30T02:06:33.610Z,89.12
2022-10-30T02:07:33.652Z,89.32
2022-10-30T02:08:33.599Z,89.12
2022-10-30T02:09:33.579Z,89.63
2022-10-30T02:10:33.565Z,89.23
2022-10-30T02:11:33.567Z,89.53
2022-10-30T02:12:33.554Z,89.77
2022-10-30T02:13:33.563Z,90.08
2022-10-30T02:14:33.529Z,89.77
2022-10-30T02:15:33.516Z,90.38
2022-10-30T02:16:33.502Z,90.28
2022-10-30T02:17:33.507Z,90.48
2022-10-30T02:18:33.523Z,90.48
2022-10-30T02:19:33.470Z,90.48
2022-10-30T02:20:33.457Z,90.28
2022-10-30T02:21:33.449Z,90.18
2022-10-30T02:22:33.636Z,89.98
2022-10-30T02:23:33.433Z,90.08
2022-10-30T02:24:33.414Z,90.08
2022-10-30T02:25:33.405Z,89.77
2022-10-30T02:26:33.391Z,90.18
2022-10-30T02:27:33.400Z,89.67
2022-10-30T02:28:33.371Z,89.02
2022-10-30T02:29:33.379Z,89.63
2022-10-30T02:30:33.348Z,89.12
2022-10-30T02:31:33.341Z,89.23
2022-10-30T02:32:33.337Z,89.12
2022-10-30T02:33:33.317Z,89.32
2022-10-30T02:34:33.305Z,89.32
2022-10-30T02:35:34.418Z,89.23
2022-10-30T02:36:33.286Z,88.92
2022-10-30T02:37:33.310Z,89.32
2022-10-30T02:38:33.271Z,88.42
2022-10-30T02:39:33.253Z,88.42
2022-10-30T02:40:33.253Z,88.21
2022-10-30T02:41:33.231Z,88.01
2022-10-30T02:42:33.229Z,87.60
2022-10-30T02:43:33.232Z,87.40
2022-10-30T02:44:33.196Z,87.81
2022-10-30T02:45:33.205Z,87.40
2022-10-30T02:46:33.178Z,87.34
2022-10-30T02:47:33.186Z,87.34
2022-10-30T02:48:33.201Z,87.34
2022-10-30T02:49:33.154Z,87.74
2022-10-30T02:50:33.133Z,87.45
2022-10-30T02:51:33.131Z,87.65
2022-10-30T02:52:33.120Z,87.74
2022-10-30T02:53:33.101Z,87.85
2022-10-30T02:54:33.090Z,87.54
2022-10-30T02:55:33.079Z,87.74
2022-10-30T02:56:33.066Z,88.35
2022-10-30T02:57:33.068Z,88.05
2022-10-30T02:58:33.045Z,87.85
2022-10-30T02:59:33.037Z,87.85
2022-10-30T03:00:33.025Z,88.15
2022-10-30T03:01:33.211Z,88.15
2022-10-30T03:02:33.014Z,89.06
2022-10-30T03:03:32.994Z,89.31
2022-10-30T03:04:32.981Z,89.37
2022-10-30T03:05:32.972Z,89.67
2022-10-30T03:06:32.957Z,89.57
2022-10-30T03:07:32.958Z,89.77
2022-10-30T03:08:32.937Z,90.28
2022-10-30T03:09:32.929Z,90.18
2022-10-30T03:10:32.915Z,89.67
2022-10-30T03:11:32.907Z,89.87
2022-10-30T03:12:32.904Z,90.08
2022-10-30T03:13:32.884Z,89.77
2022-10-30T03:14:32.872Z,89.87
2022-10-30T03:15:32.864Z,90.28
2022-10-30T03:16:32.854Z,89.98
2022-10-30T03:17:32.922Z,90.18
2022-10-30T03:18:32.833Z,90.18
2022-10-30T03:19:32.822Z,89.83
2022-10-30T03:20:32.807Z,89.98
2022-10-30T03:21:32.799Z,89.98
2022-10-30T03:22:32.795Z,89.83
2022-10-30T03:23:32.782Z,89.94
2022-10-30T03:24:32.765Z,89.73
2022-10-30T03:25:32.757Z,89.02
2022-10-30T03:26:32.748Z,89.23
2022-10-30T03:27:32.749Z,89.32
2022-10-30T03:28:32.720Z,89.06
2022-10-30T03:29:32.712Z,88.42
2022-10-30T03:30:32.698Z,88.51
2022-10-30T03:31:32.691Z,88.31
2022-10-30T03:32:32.694Z,88.21
2022-10-30T03:33:32.684Z,88.11
2022-10-30T03:34:32.656Z,88.51
2022-10-30T03:35:32.651Z,88.11
2022-10-30T03:36:32.633Z,88.11
2022-10-30T03:37:32.642Z,87.81
2022-10-30T03:38:32.628Z,87.81
2022-10-30T03:39:32.602Z,88.11
2022-10-30T03:40:32.593Z,88.21
2022-10-30T03:41:32.626Z,89.17
2022-10-30T03:42:32.582Z,88.92
2022-10-30T03:43:32.561Z,89.57
2022-10-30T03:44:32.548Z,89.47
2022-10-30T03:45:32.541Z,89.47
2022-10-30T03:46:32.527Z,89.32
2022-10-30T03:47:32.525Z,89.67
2022-10-30T03:48:32.507Z,89.43
2022-10-30T03:49:32.514Z,89.83
2022-10-30T03:50:32.485Z,89.73
2022-10-30T03:51:32.582Z,89.47
2022-10-30T03:52:32.472Z,89.47
2022-10-30T03:53:32.454Z,88.15
2022-10-30T03:54:32.445Z,87.74
2022-10-30T03:55:32.429Z,88.15
2022-10-30T03:56:32.452Z,87.85
2022-10-30T03:57:32.419Z,87.45
2022-10-30T03:58:32.396Z,87.95
2022-10-30T03:59:32.395Z,87.54
2022-10-30T04:00:32.374Z,87.18
2022-10-30T04:01:32.492Z,87.28
2022-10-30T04:02:32.363Z,87.28
2022-10-30T04:03:32.344Z,87.28
2022-10-30T04:04:32.336Z,87.28
2022-10-30T04:05:32.337Z,87.89
2022-10-30T04:06:32.310Z,87.28
2022-10-30T04:07:32.311Z,87.99
2022-10-30T04:08:32.286Z,87.24
2022-10-30T04:09:32.281Z,88.09
2022-10-30T04:10:32.265Z,87.28
2022-10-30T04:11:32.333Z,87.34
2022-10-30T04:12:32.260Z,87.24
2022-10-30T04:13:32.236Z,87.79
2022-10-30T04:14:32.251Z,87.45
2022-10-30T04:15:32.213Z,87.45
2022-10-30T04:16:32.205Z,87.95
2022-10-30T04:17:32.221Z,87.45
2022-10-30T04:18:32.179Z,87.85
2022-10-30T04:19:32.170Z,88.05
2022-10-30T04:20:32.163Z,87.85
2022-10-30T04:21:32.167Z,88.25
2022-10-30T04:22:32.135Z,88.05
2022-10-30T04:23:32.139Z,87.81
2022-10-30T04:24:32.116Z,88.05
2022-10-30T04:25:32.108Z,87.95
2022-10-30T04:26:32.096Z,88.31
2022-10-30T04:27:32.083Z,87.91
2022-10-30T04:28:32.081Z,87.81
2022-10-30T04:29:32.061Z,88.01
2022-10-30T04:30:32.048Z,87.71
2022-10-30T04:31:32.086Z,87.71
2022-10-30T04:32:32.028Z,87.40
2022-10-30T04:33:32.026Z,87.71
2022-10-30T04:34:32.006Z,87.91
2022-10-30T04:35:31.996Z,87.40
2022-10-30T04:36:31.984Z,87.71
2022-10-30T04:37:31.993Z,87.51
2022-10-30T04:38:31.978Z,87.20
2022-10-30T04:39:31.952Z,87.40
2022-10-30T04:40:31.940Z,87.81
2022-10-30T04:41:31.930Z,87.30
2022-10-30T04:42:31.920Z,87.20
2022-10-30T04:43:31.920Z,87.30
2022-10-30T04:44:31.897Z,87.71
2022-10-30T04:45:31.889Z,87.51
2022-10-30T04:46:31.877Z,87.60
2022-10-30T04:48:31.869Z,87.51
2022-10-30T04:49:31.843Z,87.46
2022-10-30T04:50:31.839Z,87.51
2022-10-30T04:51:31.824Z,87.40
2022-10-30T04:52:31.811Z,87.71
2022-10-30T04:53:31.832Z,87.20
2022-10-30T04:54:31.790Z,87.81
2022-10-30T04:55:31.810Z,87.20
2022-10-30T04:56:31.767Z,87.10
2022-10-30T04:57:31.766Z,87.40
2022-10-30T04:58:31.755Z,87.51
2022-10-30T04:59:31.737Z,87.30
2022-10-30T05:00:31.725Z,87.30
2022-10-30T05:01:31.876Z,87.71
2022-10-30T05:02:31.943Z,87.51
2022-10-30T05:03:31.702Z,87.60
2022-10-30T05:04:31.681Z,87.60
2022-10-30T05:05:31.674Z,86.79
2022-10-30T05:06:31.659Z,86.63
2022-10-30T05:07:31.650Z,88.09
2022-10-30T05:08:31.681Z,87.48
2022-10-30T05:09:31.646Z,87.99
2022-10-30T05:10:31.615Z,87.99
2022-10-30T05:11:31.609Z,88.40
2022-10-30T05:12:31.594Z,89.21
2022-10-30T05:13:31.594Z,89.21
2022-10-30T05:14:31.572Z,89.81
2022-10-30T05:15:31.563Z,89.72
2022-10-30T05:16:31.552Z,90.06
2022-10-30T05:18:31.565Z,90.12
2022-10-30T05:19:31.522Z,90.02
2022-10-30T05:20:31.508Z,90.12
2022-10-30T05:21:31.497Z,89.72
2022-10-30T05:22:31.486Z,89.92
2022-10-30T05:23:31.485Z,89.77
2022-10-30T05:24:31.464Z,90.02
2022-10-30T05:25:31.471Z,89.92
2022-10-30T05:26:31.443Z,89.87
2022-10-30T05:27:31.432Z,89.98
2022-10-30T05:28:31.432Z,89.47
2022-10-30T05:29:31.417Z,89.47
2022-10-30T05:30:31.403Z,89.37
2022-10-30T05:31:31.417Z,88.66
2022-10-30T05:32:31.376Z,88.80
2022-10-30T05:33:31.385Z,89.11
2022-10-30T05:34:31.355Z,89.41
2022-10-30T05:35:31.350Z,89.41
2022-10-30T05:36:31.333Z,89.41
2022-10-30T05:37:31.325Z,89.47
2022-10-30T05:38:31.321Z,88.96
2022-10-30T05:39:31.300Z,89.41
2022-10-30T05:40:31.293Z,89.31
2022-10-30T05:41:31.297Z,89.81
2022-10-30T05:42:31.270Z,89.72
2022-10-30T05:43:31.267Z,89.86
2022-10-30T05:44:58.737Z,89.61
2022-10-30T05:45:32.236Z,90.02
2022-10-30T05:46:31.226Z,90.02
2022-10-30T05:47:31.221Z,90.02
2022-10-30T05:48:31.215Z,89.81
2022-10-30T05:49:31.205Z,89.51
2022-10-30T05:50:31.184Z,89.51
2022-10-30T05:51:33.152Z,89.72
2022-10-30T05:52:31.162Z,89.01
2022-10-30T05:53:31.158Z,89.51
2022-10-30T05:54:31.140Z,89.41
2022-10-30T05:55:31.127Z,89.37
2022-10-30T05:56:31.119Z,89.31
2022-10-30T05:57:31.123Z,88.96
2022-10-30T05:58:31.115Z,88.66
2022-10-30T05:59:31.085Z,88.66
2022-10-30T06:00:31.075Z,88.20
2022-10-30T06:01:31.194Z,88.40
2022-10-30T06:02:31.126Z,88.80
2022-10-30T06:03:31.048Z,88.60
2022-10-30T06:04:31.032Z,88.25
2022-10-30T06:05:31.034Z,88.76
2022-10-30T06:06:31.012Z,88.25
2022-10-30T06:07:31.009Z,88.56
2022-10-30T06:08:30.987Z,88.15
2022-10-30T06:09:30.978Z,88.35
2022-10-30T06:10:30.967Z,88.21
2022-10-30T06:11:30.956Z,87.91
2022-10-30T06:12:30.945Z,88.05
2022-10-30T06:13:30.964Z,87.40
2022-10-30T06:14:30.951Z,88.01
2022-10-30T06:15:30.910Z,87.51
2022-10-30T06:17:30.888Z,87.00
2022-10-30T06:18:30.889Z,87.20
2022-10-30T06:19:30.868Z,87.30
2022-10-30T06:20:30.863Z,87.10
2022-10-30T06:21:30.846Z,87.60
2022-10-30T06:22:30.841Z,87.60
2022-10-30T06:23:30.858Z,87.30
2022-10-30T06:24:30.818Z,87.51
2022-10-30T06:25:31.127Z,87.20
2022-10-30T06:26:30.802Z,86.79
2022-10-30T06:27:30.790Z,87.60
2022-10-30T06:28:30.773Z,87.60
2022-10-30T06:29:30.776Z,87.71
2022-10-30T06:30:30.749Z,87.71
2022-10-30T06:31:30.738Z,86.08
2022-10-30T06:32:30.740Z,86.29
2022-10-30T06:33:30.720Z,86.90
2022-10-30T06:34:30.710Z,86.79
2022-10-30T06:35:30.692Z,86.29
2022-10-30T06:36:30.685Z,86.29
2022-10-30T06:37:30.686Z,86.25
2022-10-30T06:38:30.665Z,85.94
2022-10-30T06:39:30.650Z,86.05
2022-10-30T06:40:30.644Z,86.45
2022-10-30T06:41:30.821Z,86.25
2022-10-30T06:42:30.633Z,86.55
2022-10-30T06:43:30.608Z,86.35
2022-10-30T06:44:30.600Z,86.15
2022-10-30T06:45:30.604Z,85.84
2022-10-30T06:46:33.544Z,86.25
2022-10-30T06:47:30.610Z,86.25
2022-10-30T06:48:30.609Z,85.84
2022-10-30T06:49:30.545Z,85.64
2022-10-30T06:50:30.533Z,86.00
2022-10-30T06:51:30.522Z,85.80
2022-10-30T06:52:30.532Z,85.70
2022-10-30T06:53:30.508Z,85.30
2022-10-30T06:54:30.528Z,84.99
2022-10-30T06:55:30.478Z,84.89
2022-10-30T06:56:30.492Z,85.10
2022-10-30T06:57:30.480Z,85.19
2022-10-30T06:58:30.450Z,84.65
2022-10-30T06:59:30.433Z,84.45
2022-10-30T07:00:30.506Z,84.65
2022-10-30T07:01:30.451Z,84.55
2022-10-30T07:02:30.434Z,84.04
2022-10-30T07:03:30.392Z,83.80
2022-10-30T07:04:30.383Z,84.11
2022-10-30T07:05:30.370Z,83.70
2022-10-30T07:06:30.362Z,83.70
2022-10-30T07:07:30.362Z,83.09
2022-10-30T07:08:30.349Z,83.29
2022-10-30T07:09:30.328Z,82.85
2022-10-30T07:10:30.319Z,83.05
2022-10-30T07:11:30.310Z,82.14
2022-10-30T07:12:30.308Z,82.14
2022-10-30T07:13:30.286Z,82.45
2022-10-30T07:14:30.272Z,82.45
2022-10-30T07:15:30.279Z,82.35
2022-10-30T07:16:30.255Z,82.35
2022-10-30T07:17:30.255Z,81.80
2022-10-30T07:18:30.245Z,81.60
2022-10-30T07:19:30.231Z,81.50
2022-10-30T07:20:30.317Z,81.60
2022-10-30T07:21:30.202Z,81.60
2022-10-30T07:22:30.187Z,81.20
2022-10-30T07:23:30.199Z,80.99
2022-10-30T07:24:30.175Z,80.90
2022-10-30T07:25:30.256Z,80.65
2022-10-30T07:26:30.162Z,80.85
2022-10-30T07:27:30.132Z,80.85
2022-10-30T07:28:30.137Z,79.81
2022-10-30T07:29:30.113Z,78.96
2022-10-30T07:30:30.137Z,79.16
2022-10-30T07:31:41.819Z,78.19
2022-10-30T07:32:31.197Z,77.14
2022-10-30T07:33:30.099Z,76.90
2022-10-30T07:34:30.058Z,75.76
2022-10-30T07:35:30.053Z,75.05
2022-10-30T07:36:30.084Z,74.41
2022-10-30T07:37:30.040Z,73.68
2022-10-30T07:38:30.036Z,73.14
2022-10-30T07:39:30.043Z,72.50
2022-10-30T07:40:29.993Z,71.80
2022-10-30T07:41:30.000Z,71.56
2022-10-30T07:42:29.969Z,71.03
2022-10-30T07:43:29.968Z,70.12
2022-10-30T07:44:29.949Z,69.99
2022-10-30T07:45:29.939Z,69.35
2022-10-30T07:46:29.929Z,69.46
2022-10-30T07:47:29.926Z,69.12
2022-10-30T07:48:29.906Z,69.12
2022-10-30T07:49:29.916Z,69.12
2022-10-30T07:50:29.882Z,68.59
2022-10-30T07:51:29.872Z,68.19
2022-10-30T07:52:29.880Z,68.49
2022-10-30T07:53:29.851Z,68.82
2022-10-30T07:54:29.841Z,69.12
2022-10-30T07:55:29.835Z,68.92
2022-10-30T07:56:29.817Z,68.49
2022-10-30T07:57:29.818Z,67.05
2022-10-30T07:58:29.805Z,66.42
2022-10-30T07:59:29.811Z,65.83
2022-10-30T08:00:29.790Z,65.49
2022-10-30T08:01:29.918Z,65.49
2022-10-30T08:02:29.861Z,64.79
2022-10-30T08:03:29.754Z,64.59
2022-10-30T08:04:29.743Z,64.39
2022-10-30T08:05:30.388Z,64.92
2022-10-30T08:06:29.725Z,64.83
2022-10-30T08:07:29.715Z,65.86
2022-10-30T08:08:29.697Z,66.19
2022-10-30T08:09:29.680Z,65.99
2022-10-30T08:10:29.667Z,66.42
2022-10-30T08:11:29.671Z,67.12
2022-10-30T08:12:29.663Z,67.25
2022-10-30T08:13:29.659Z,67.76
2022-10-30T08:14:29.629Z,68.05
2022-10-30T08:15:29.614Z,68.29
2022-10-30T08:16:29.606Z,68.82
2022-10-30T08:17:29.604Z,69.12
2022-10-30T08:18:29.579Z,69.02
2022-10-30T08:19:29.566Z,69.53
2022-10-30T08:20:29.557Z,69.53
2022-10-30T08:21:29.565Z,69.02
2022-10-30T08:22:29.537Z,68.99
2022-10-30T08:23:29.534Z,68.49
2022-10-30T08:24:29.514Z,68.15
2022-10-30T08:25:29.499Z,68.55
2022-10-30T08:26:29.492Z,68.02
2022-10-30T08:27:29.493Z,67.09
2022-10-30T08:28:32.650Z,67.19
2022-10-30T08:29:29.455Z,66.89
2022-10-30T08:30:29.467Z,67.19
2022-10-30T08:31:29.435Z,66.99
2022-10-30T08:32:29.450Z,67.09
2022-10-30T08:33:29.411Z,66.89
2022-10-30T08:34:29.408Z,67.09
2022-10-30T08:35:29.470Z,66.69
2022-10-30T08:36:29.387Z,66.59
2022-10-30T08:37:29.431Z,66.25
2022-10-30T08:38:29.374Z,65.52
2022-10-30T08:39:29.352Z,65.92
2022-10-30T08:40:29.339Z,65.33
2022-10-30T08:41:29.333Z,65.12
2022-10-30T08:42:29.336Z,64.83
2022-10-30T08:43:29.311Z,64.69
2022-10-30T08:44:29.319Z,64.79
2022-10-30T08:45:31.117Z,64.00
2022-10-30T08:46:29.273Z,64.00
2022-10-30T08:47:29.282Z,63.66
2022-10-30T08:48:29.255Z,63.46
2022-10-30T08:49:29.243Z,63.53
2022-10-30T08:50:29.235Z,62.73
2022-10-30T08:51:29.217Z,62.81
2022-10-30T08:52:29.222Z,62.48
2022-10-30T08:53:29.217Z,61.47
2022-10-30T08:54:29.199Z,61.35
2022-10-30T08:55:29.176Z,60.42
2022-10-30T08:56:29.168Z,59.79
2022-10-30T08:57:29.166Z,59.27
2022-10-30T08:58:29.146Z,59.27
2022-10-30T08:59:29.136Z,57.92
2022-10-30T09:00:29.137Z,57.39
2022-10-30T09:01:29.255Z,57.69
2022-10-30T09:02:29.249Z,57.06
2022-10-30T09:03:29.088Z,56.67
2022-10-30T09:04:29.082Z,55.72
2022-10-30T09:05:29.075Z,54.80
2022-10-30T09:06:29.063Z,54.70
2022-10-30T09:07:29.077Z,54.40
2022-10-30T09:08:29.041Z,53.78
2022-10-30T09:09:29.051Z,52.76
2022-10-30T09:10:29.033Z,52.86
2022-10-30T09:11:29.011Z,52.96
2022-10-30T09:12:29.010Z,52.89
2022-10-30T09:13:28.991Z,52.96
2022-10-30T09:14:28.993Z,53.36
2022-10-30T09:15:28.969Z,53.13
2022-10-30T09:16:29.002Z,52.34
2022-10-30T09:17:28.977Z,52.51
2022-10-30T09:18:28.939Z,51.70
2022-10-30T09:19:28.930Z,51.40
2022-10-30T09:20:28.919Z,51.28
2022-10-30T09:21:28.903Z,51.37
2022-10-30T09:22:28.923Z,50.98
2022-10-30T09:23:28.897Z,50.88
2022-10-30T09:24:28.878Z,50.66
2022-10-30T09:25:28.884Z,50.36
2022-10-30T09:26:28.888Z,50.04
2022-10-30T09:27:28.872Z,50.04
2022-10-30T09:28:28.837Z,48.83
2022-10-30T09:29:28.826Z,49.42
2022-10-30T09:30:28.822Z,48.51
2022-10-30T09:31:28.805Z,49.01
2022-10-30T09:32:28.886Z,48.51
2022-10-30T09:33:28.788Z,48.31
2022-10-30T09:35:28.771Z,48.28
2022-10-30T09:36:28.760Z,47.87
2022-10-30T09:37:28.755Z,47.06
2022-10-30T09:38:28.736Z,47.75
2022-10-30T09:39:28.727Z,46.96
2022-10-30T09:40:28.760Z,46.94
2022-10-30T09:41:28.789Z,46.42
2022-10-30T09:42:28.720Z,45.41
2022-10-30T09:43:28.696Z,46.30
2022-10-30T09:44:28.685Z,45.09
2022-10-30T09:45:29.965Z,45.29
2022-10-30T09:46:28.710Z,45.00
2022-10-30T09:47:28.653Z,44.29
2022-10-30T09:48:28.643Z,45.00
2022-10-30T09:49:28.634Z,44.70
2022-10-30T09:50:28.632Z,45.29
2022-10-30T09:51:28.634Z,44.68
2022-10-30T09:52:28.621Z,44.38
2022-10-30T09:53:28.600Z,44.85
2022-10-30T09:54:28.604Z,44.68
2022-10-30T09:55:28.573Z,44.78
2022-10-30T09:56:28.618Z,44.19
2022-10-30T09:57:28.595Z,43.89
2022-10-30T09:58:28.553Z,43.68
2022-10-30T09:59:28.549Z,42.67
2022-10-30T10:00:28.526Z,43.65
2022-10-30T10:01:28.745Z,43.85
2022-10-30T10:02:28.674Z,43.26
2022-10-30T10:03:28.501Z,43.16
2022-10-30T10:04:28.488Z,43.48
2022-10-30T10:05:28.493Z,43.16
2022-10-30T10:06:28.492Z,43.97
2022-10-30T10:07:28.463Z,43.57
2022-10-30T10:08:28.465Z,43.87
2022-10-30T10:09:28.536Z,43.87
2022-10-30T10:10:28.444Z,42.67
2022-10-30T10:11:28.439Z,44.07
2022-10-30T10:12:28.444Z,43.40
2022-10-30T10:13:28.429Z,44.48
2022-10-30T10:14:28.428Z,45.00
2022-10-30T10:15:28.393Z,45.75
2022-10-30T10:16:28.395Z,46.61
2022-10-30T10:17:28.375Z,47.05
2022-10-30T10:18:28.411Z,49.40
2022-10-30T10:19:28.359Z,49.62
2022-10-30T10:20:28.348Z,51.12
2022-10-30T10:21:28.365Z,51.87
2022-10-30T10:22:28.327Z,52.29
2022-10-30T10:23:28.318Z,52.81
2022-10-30T10:24:28.309Z,52.54
2022-10-30T10:25:28.303Z,53.06
2022-10-30T10:26:28.297Z,54.28
2022-10-30T10:27:28.277Z,53.88
2022-10-30T10:28:29.794Z,54.58
2022-10-30T10:29:28.283Z,55.60
2022-10-30T10:30:28.243Z,55.40
2022-10-30T10:31:28.244Z,55.23
2022-10-30T10:32:28.230Z,55.43
2022-10-30T10:33:28.217Z,55.76
2022-10-30T10:34:28.208Z,55.85
2022-10-30T10:35:28.205Z,56.57
2022-10-30T10:36:28.206Z,56.98
2022-10-30T10:37:28.187Z,57.10
2022-10-30T10:38:28.166Z,57.00
2022-10-30T10:39:28.157Z,57.30
2022-10-30T10:40:28.145Z,57.70
2022-10-30T10:41:28.150Z,58.12
2022-10-30T10:42:28.135Z,57.93
2022-10-30T10:43:28.115Z,58.03
2022-10-30T10:44:28.098Z,58.45
2022-10-30T10:45:28.115Z,58.45
2022-10-30T10:46:28.109Z,58.36
2022-10-30T10:47:28.069Z,57.76
2022-10-30T10:48:28.060Z,58.75
2022-10-30T10:49:28.144Z,58.48
2022-10-30T10:50:28.058Z,58.28
2022-10-30T10:51:28.051Z,58.78
2022-10-30T10:52:28.014Z,58.88
2022-10-30T10:53:28.004Z,58.08
2022-10-30T10:54:28.001Z,59.51
2022-10-30T10:55:27.984Z,58.91
2022-10-30T10:56:27.990Z,58.21
2022-10-30T10:57:27.963Z,58.14
2022-10-30T10:58:27.952Z,59.53
2022-10-30T10:59:27.945Z,59.74
2022-10-30T11:00:27.928Z,59.74
2022-10-30T11:01:28.104Z,59.34
2022-10-30T11:02:28.010Z,59.64
2022-10-30T11:03:27.900Z,60.24
2022-10-30T11:04:27.892Z,60.53
2022-10-30T11:05:27.886Z,59.97
2022-10-30T11:06:27.875Z,59.97
2022-10-30T11:07:27.857Z,60.27
2022-10-30T11:08:27.879Z,59.77
2022-10-30T11:09:27.837Z,59.77
2022-10-30T11:10:27.820Z,60.66
2022-10-30T11:11:27.821Z,60.57
2022-10-30T11:12:30.901Z,60.27
2022-10-30T11:13:28.788Z,60.06
2022-10-30T11:14:27.777Z,60.27
2022-10-30T11:15:27.768Z,60.36
2022-10-30T11:16:27.764Z,60.06
2022-10-30T11:17:27.762Z,60.27
2022-10-30T11:18:27.739Z,60.16
2022-10-30T11:19:27.721Z,60.57
2022-10-30T11:20:27.714Z,60.16
2022-10-30T11:21:27.710Z,60.46
2022-10-30T11:22:27.690Z,60.36
2022-10-30T11:23:27.680Z,60.27
2022-10-30T11:24:27.670Z,60.16
2022-10-30T11:25:31.169Z,60.66
2022-10-30T11:26:27.652Z,60.77
2022-10-30T11:27:27.650Z,60.06
2022-10-30T11:28:27.623Z,60.86
2022-10-30T11:29:27.616Z,59.79
2022-10-30T11:30:27.600Z,60.59
2022-10-30T11:31:27.668Z,60.79
2022-10-30T11:32:27.583Z,60.49
2022-10-30T11:33:27.591Z,60.49
2022-10-30T11:34:27.562Z,60.10
2022-10-30T11:35:27.586Z,60.77
2022-10-30T11:36:27.572Z,61.69
2022-10-30T11:37:27.526Z,61.19
2022-10-30T11:38:27.515Z,60.69
2022-10-30T11:39:27.507Z,60.59
2022-10-30T11:40:27.498Z,60.69
2022-10-30T11:41:27.498Z,59.99
2022-10-30T11:42:27.471Z,60.39
2022-10-30T11:43:27.466Z,59.86
2022-10-30T11:44:27.449Z,60.27
2022-10-30T11:45:27.451Z,60.19
2022-10-30T11:46:27.435Z,60.06
2022-10-30T11:47:27.507Z,60.57
2022-10-30T11:48:27.443Z,59.99
2022-10-30T11:49:27.417Z,59.99
2022-10-30T11:50:27.407Z,60.49
2022-10-30T11:51:27.446Z,60.29
2022-10-30T11:52:27.367Z,60.99
2022-10-30T11:53:27.356Z,60.69
2022-10-30T11:54:27.342Z,59.99
2022-10-30T11:55:27.347Z,60.89
2022-10-30T11:56:27.320Z,60.59
2022-10-30T11:57:27.312Z,60.29
2022-10-30T11:58:27.303Z,60.10
2022-10-30T11:59:27.289Z,60.69
2022-10-30T12:00:27.296Z,60.57
2022-10-30T12:01:27.371Z,60.99
2022-10-30T12:02:27.475Z,60.79
2022-10-30T12:03:27.252Z,61.40
2022-10-30T12:04:27.234Z,61.29
2022-10-30T12:05:27.271Z,60.69
2022-10-30T12:06:27.213Z,60.19
2022-10-30T12:07:27.204Z,60.49
2022-10-30T12:08:27.190Z,60.49
2022-10-30T12:09:27.182Z,60.59
2022-10-30T12:10:27.179Z,60.69
2022-10-30T12:11:27.159Z,60.59
2022-10-30T12:12:27.146Z,60.10
2022-10-30T12:13:27.138Z,60.69
2022-10-30T12:14:27.128Z,59.89
2022-10-30T12:15:27.129Z,59.89
2022-10-30T12:16:27.104Z,59.99
2022-10-30T12:17:27.095Z,59.99
2022-10-30T12:19:27.075Z,59.89
2022-10-30T12:20:27.073Z,60.10
2022-10-30T12:21:27.070Z,60.10
2022-10-30T12:22:27.040Z,59.79
2022-10-30T12:23:27.031Z,60.79
2022-10-30T12:24:27.019Z,60.39
2022-10-30T12:25:27.019Z,60.69
2022-10-30T12:26:26.996Z,60.89
2022-10-30T12:27:27.002Z,60.69
2022-10-30T12:28:26.975Z,61.19
2022-10-30T12:29:41.672Z,60.69
2022-10-30T12:30:27.983Z,61.59
2022-10-30T12:31:26.952Z,61.49
2022-10-30T12:32:26.933Z,61.59
2022-10-30T12:33:26.924Z,61.49
2022-10-30T12:34:26.917Z,61.49
2022-10-30T12:35:26.918Z,61.62
2022-10-30T12:36:26.890Z,61.49
2022-10-30T12:37:26.899Z,61.40
2022-10-30T12:38:26.868Z,61.69
2022-10-30T12:39:26.859Z,61.49
2022-10-30T12:40:26.859Z,61.69
2022-10-30T12:41:26.840Z,61.59
2022-10-30T12:42:26.829Z,61.40
2022-10-30T12:43:26.821Z,61.59
2022-10-30T12:44:26.842Z,61.49
2022-10-30T12:45:26.809Z,61.59
2022-10-30T12:46:26.790Z,61.49
2022-10-30T12:47:26.782Z,61.69
2022-10-30T12:48:26.763Z,61.49
2022-10-30T12:49:26.760Z,61.40
2022-10-30T12:50:26.797Z,61.19
2022-10-30T12:51:26.742Z,61.59
2022-10-30T12:52:26.726Z,61.76
2022-10-30T12:53:26.730Z,61.49
2022-10-30T12:54:26.702Z,61.49
2022-10-30T12:55:26.704Z,61.49
2022-10-30T12:56:26.678Z,61.69
2022-10-30T12:57:26.672Z,62.32